KGRB/GRB METAR and TAF weather

Enter ICAO airport designator
Station Type Date Time Source
KGRB METAR 2019/06/27 09:53 UTC NOAA

KGRB 270953Z AUTO 00000KT 9SM CLR 17/15 A3012 RMK AO2 SLP198 T01670150


Station Type Date Time Source
KGRB Decoded METAR 2019/06/27 09:53 UTC NOAA

AUSTIN STRAUBEL INTERNATIONAL AIRPORT , WI, United States (KGRB) 44-29N 088-08W 205M
Jun 27, 2019 - 05:53 AM EDT / 2019.06.27 0953 UTC
Wind: Calm:0
Visibility: 9 mile(s):0
Sky conditions: clear
Temperature: 62.1 F (16.7 C)
Dew Point: 59.0 F (15.0 C)
Relative Humidity: 89%
Pressure (altimeter): 30.12 in. Hg (1019 hPa)
ob: KGRB 270953Z AUTO 00000KT 9SM CLR 17/15 A3012 RMK AO2 SLP198 T01670150
cycle: 10

Station Type Date Time Source
KGRB TAF 2019/06/27 06:22 UTC NOAA

TAF KGRB 270520Z 2706/2806 18004KT P6SM SCT250
FM271900 19007KT P6SM SCT080 SCT100
FM272100 20005KT P6SM SCT050 BKN070
TEMPO 2801/2804 1SM TSRA BKN018CB
FM280400 VRB03KT P6SM -SHRA SCT030 OVC050

Example: see airport list